DAL1306 KATL-KCLT
Flight info
| Callsign | DAL1306 |
|---|---|
| Flight time | 0h 38m |
| Altitude | 29000 |
| Route | PHIIL3 PHIIL CNTLR JONZE5 |
| Aircraft | A319/M-SDE3FGHIRWY/LB1 |
Departure
| Time | 2026-05-07 17:24 |
|---|---|
| Airport | Hartsfield Jackson Atlanta International Airport (KATL) |
Arrival
| Time | 2026-05-07 18:02 |
|---|---|
| Airport | Charlotte Douglas International Airport (KCLT) |
| Time | Latitude | Longitude | Altitude | Speed | Heading |
|---|---|---|---|---|---|
| 2026-05-07 17:11 | 33.63807 | -84.41928 | 1006 ft | 0 kts | 269° |
| 2026-05-07 17:14 | 33.63807 | -84.41921 | 1006 ft | 4 kts | 269° |
| 2026-05-07 17:15 | 33.63808 | -84.41889 | 1006 ft | 4 kts | 268° |
| 2026-05-07 17:15 | 33.63811 | -84.41857 | 1006 ft | 4 kts | 251° |
| 2026-05-07 17:15 | 33.63823 | -84.41831 | 1007 ft | 4 kts | 210° |
| 2026-05-07 17:15 | 33.63837 | -84.41826 | 1007 ft | 1 kts | 180° |
| 2026-05-07 17:16 | 33.63840 | -84.41826 | 1007 ft | 0 kts | 180° |
| 2026-05-07 17:21 | 33.63829 | -84.41826 | 1007 ft | 4 kts | 180° |
| 2026-05-07 17:21 | 33.63774 | -84.41826 | 1007 ft | 12 kts | 179° |
| 2026-05-07 17:21 | 33.63668 | -84.41821 | 1006 ft | 16 kts | 162° |
| 2026-05-07 17:22 | 33.63585 | -84.41746 | 1006 ft | 15 kts | 109° |
| 2026-05-07 17:22 | 33.63572 | -84.41625 | 1006 ft | 14 kts | 122° |
| 2026-05-07 17:22 | 33.63489 | -84.41590 | 1005 ft | 13 kts | 200° |
| 2026-05-07 17:22 | 33.63471 | -84.41656 | 1005 ft | 1 kts | 275° |
| 2026-05-07 17:23 | 33.63472 | -84.41666 | 1005 ft | 2 kts | 275° |
| 2026-05-07 17:23 | 33.63470 | -84.41755 | 1006 ft | 39 kts | 270° |
| 2026-05-07 17:23 | 33.63471 | -84.42410 | 1008 ft | 114 kts | 270° |
| 2026-05-07 17:23 | 33.63475 | -84.43605 | 1042 ft | 166 kts | 273° |
| 2026-05-07 17:24 | 33.63457 | -84.44992 | 1689 ft | 167 kts | 271° |
| 2026-05-07 17:24 | 33.63433 | -84.46384 | 2469 ft | 166 kts | 272° |
| 2026-05-07 17:24 | 33.63274 | -84.47787 | 3048 ft | 180 kts | 253° |
| 2026-05-07 17:24 | 33.62698 | -84.49246 | 3412 ft | 207 kts | 246° |
| 2026-05-07 17:25 | 33.62012 | -84.50881 | 3894 ft | 231 kts | 245° |
| 2026-05-07 17:25 | 33.61256 | -84.52677 | 4587 ft | 247 kts | 246° |
| 2026-05-07 17:25 | 33.60474 | -84.54536 | 5584 ft | 251 kts | 246° |
| 2026-05-07 17:25 | 33.59502 | -84.56296 | 6565 ft | 258 kts | 231° |
| 2026-05-07 17:26 | 33.58074 | -84.57641 | 7546 ft | 267 kts | 215° |
| 2026-05-07 17:26 | 33.56292 | -84.58396 | 8533 ft | 279 kts | 197° |
| 2026-05-07 17:26 | 33.54316 | -84.58494 | 9510 ft | 287 kts | 188° |
| 2026-05-07 17:26 | 33.52314 | -84.58476 | 10401 ft | 289 kts | 189° |
| 2026-05-07 17:27 | 33.50286 | -84.58456 | 11219 ft | 294 kts | 188° |
| 2026-05-07 17:27 | 33.48215 | -84.57886 | 11976 ft | 324 kts | 163° |
| 2026-05-07 17:27 | 33.46410 | -84.56088 | 12672 ft | 356 kts | 134° |
| 2026-05-07 17:27 | 33.45270 | -84.53304 | 12958 ft | 391 kts | 107° |
| 2026-05-07 17:28 | 33.44867 | -84.50021 | 13507 ft | 405 kts | 92° |
| 2026-05-07 17:28 | 33.44922 | -84.46622 | 14140 ft | 412 kts | 85° |
| 2026-05-07 17:28 | 33.45169 | -84.43221 | 14745 ft | 419 kts | 83° |
| 2026-05-07 17:28 | 33.45355 | -84.40864 | 15154 ft | 424 kts | 84° |
| 2026-05-07 17:29 | 33.45634 | -84.36149 | 16017 ft | 432 kts | 85° |
| 2026-05-07 17:29 | 33.46042 | -84.32560 | 16611 ft | 438 kts | 76° |
| 2026-05-07 17:29 | 33.46810 | -84.29016 | 17202 ft | 443 kts | 71° |
| 2026-05-07 17:29 | 33.47673 | -84.25456 | 17816 ft | 448 kts | 70° |
| 2026-05-07 17:30 | 33.48560 | -84.21858 | 18380 ft | 454 kts | 70° |
| 2026-05-07 17:30 | 33.49475 | -84.18212 | 18907 ft | 458 kts | 70° |
| 2026-05-07 17:30 | 33.50407 | -84.14547 | 19474 ft | 461 kts | 70° |
| 2026-05-07 17:30 | 33.51351 | -84.10858 | 20064 ft | 464 kts | 70° |
| 2026-05-07 17:31 | 33.52297 | -84.07146 | 20622 ft | 467 kts | 70° |
| 2026-05-07 17:31 | 33.53241 | -84.03408 | 21200 ft | 470 kts | 71° |
| 2026-05-07 17:31 | 33.54187 | -83.99636 | 21809 ft | 474 kts | 71° |
| 2026-05-07 17:31 | 33.55139 | -83.95837 | 22334 ft | 478 kts | 71° |
| 2026-05-07 17:32 | 33.56090 | -83.92036 | 22884 ft | 482 kts | 71° |
| 2026-05-07 17:32 | 33.57057 | -83.88161 | 23462 ft | 485 kts | 71° |
| 2026-05-07 17:32 | 33.58028 | -83.84275 | 23963 ft | 487 kts | 70° |
| 2026-05-07 17:32 | 33.59256 | -83.80488 | 24404 ft | 488 kts | 62° |
| 2026-05-07 17:33 | 33.60674 | -83.76772 | 24843 ft | 492 kts | 62° |
| 2026-05-07 17:33 | 33.62105 | -83.73027 | 25258 ft | 495 kts | 62° |
| 2026-05-07 17:33 | 33.63544 | -83.69246 | 25671 ft | 499 kts | 62° |
| 2026-05-07 17:33 | 33.64978 | -83.65447 | 26093 ft | 502 kts | 64° |
| 2026-05-07 17:34 | 33.66143 | -83.61465 | 26494 ft | 508 kts | 72° |
| 2026-05-07 17:34 | 33.67368 | -83.57483 | 26889 ft | 509 kts | 62° |
| 2026-05-07 17:34 | 33.69078 | -83.53839 | 27265 ft | 507 kts | 51° |
| 2026-05-07 17:34 | 33.71048 | -83.50314 | 27678 ft | 509 kts | 51° |
| 2026-05-07 17:35 | 33.73010 | -83.46758 | 28087 ft | 512 kts | 52° |
| 2026-05-07 17:35 | 33.74967 | -83.43157 | 28471 ft | 516 kts | 52° |
| 2026-05-07 17:35 | 33.76918 | -83.39514 | 28833 ft | 520 kts | 53° |
| 2026-05-07 17:35 | 33.78857 | -83.35857 | 28944 ft | 515 kts | 53° |
| 2026-05-07 17:36 | 33.80745 | -83.32284 | 28931 ft | 498 kts | 52° |
| 2026-05-07 17:36 | 33.82590 | -83.28802 | 28941 ft | 490 kts | 52° |
| 2026-05-07 17:36 | 33.86265 | -83.21938 | 28936 ft | 486 kts | 52° |
| 2026-05-07 17:37 | 33.89937 | -83.15103 | 28917 ft | 486 kts | 52° |
| 2026-05-07 17:37 | 33.93569 | -83.08300 | 28926 ft | 485 kts | 52° |
| 2026-05-07 17:38 | 33.97208 | -83.01464 | 28925 ft | 485 kts | 52° |
| 2026-05-07 17:38 | 34.00842 | -82.94614 | 28933 ft | 485 kts | 52° |
| 2026-05-07 17:39 | 34.04480 | -82.87746 | 28954 ft | 487 kts | 52° |
| 2026-05-07 17:39 | 34.08120 | -82.80867 | 28934 ft | 487 kts | 52° |
| 2026-05-07 17:40 | 34.11780 | -82.73950 | 28930 ft | 488 kts | 52° |
| 2026-05-07 17:40 | 34.15423 | -82.67030 | 28927 ft | 487 kts | 52° |
| 2026-05-07 17:41 | 34.19033 | -82.60169 | 28919 ft | 487 kts | 52° |
| 2026-05-07 17:41 | 34.22672 | -82.53255 | 28909 ft | 489 kts | 52° |
| 2026-05-07 17:42 | 34.24530 | -82.49731 | 28905 ft | 505 kts | 52° |
| 2026-05-07 17:42 | 34.26450 | -82.46092 | 28897 ft | 519 kts | 52° |
| 2026-05-07 17:42 | 34.30334 | -82.38663 | 28609 ft | 520 kts | 52° |
| 2026-05-07 17:43 | 34.32242 | -82.34977 | 28145 ft | 513 kts | 53° |
| 2026-05-07 17:43 | 34.34125 | -82.31338 | 27607 ft | 506 kts | 53° |
| 2026-05-07 17:43 | 34.35981 | -82.27756 | 26833 ft | 499 kts | 52° |
| 2026-05-07 17:43 | 34.37818 | -82.24223 | 26073 ft | 493 kts | 52° |
| 2026-05-07 17:44 | 34.39637 | -82.20727 | 25352 ft | 487 kts | 53° |
| 2026-05-07 17:44 | 34.41406 | -82.17322 | 24673 ft | 481 kts | 53° |
| 2026-05-07 17:44 | 34.43180 | -82.13912 | 24006 ft | 475 kts | 53° |
| 2026-05-07 17:44 | 34.44930 | -82.10544 | 23310 ft | 470 kts | 53° |
| 2026-05-07 17:45 | 34.46659 | -82.07215 | 22544 ft | 464 kts | 53° |
| 2026-05-07 17:45 | 34.48368 | -82.03922 | 21831 ft | 458 kts | 52° |
| 2026-05-07 17:45 | 34.50053 | -82.00661 | 21051 ft | 454 kts | 53° |
| 2026-05-07 17:45 | 34.51722 | -81.97424 | 20333 ft | 449 kts | 52° |
| 2026-05-07 17:46 | 34.53366 | -81.94231 | 19645 ft | 443 kts | 52° |
| 2026-05-07 17:46 | 34.54989 | -81.91082 | 18973 ft | 437 kts | 52° |
| 2026-05-07 17:46 | 34.56595 | -81.87971 | 18317 ft | 432 kts | 52° |
| 2026-05-07 17:46 | 34.58183 | -81.84897 | 17606 ft | 426 kts | 52° |
| 2026-05-07 17:47 | 34.59741 | -81.81871 | 16914 ft | 419 kts | 52° |
| 2026-05-07 17:47 | 34.61268 | -81.78898 | 16313 ft | 411 kts | 53° |
| 2026-05-07 17:47 | 34.62744 | -81.76018 | 16115 ft | 392 kts | 53° |
| 2026-05-07 17:47 | 34.64160 | -81.73247 | 15682 ft | 382 kts | 53° |
| 2026-05-07 17:48 | 34.65549 | -81.70534 | 15172 ft | 376 kts | 53° |
| 2026-05-07 17:48 | 34.66925 | -81.67849 | 14662 ft | 370 kts | 53° |
| 2026-05-07 17:48 | 34.68287 | -81.65198 | 14409 ft | 368 kts | 53° |
| 2026-05-07 17:48 | 34.69632 | -81.62584 | 14088 ft | 362 kts | 53° |
| 2026-05-07 17:49 | 34.70955 | -81.60006 | 13695 ft | 358 kts | 54° |
| 2026-05-07 17:49 | 34.72261 | -81.57451 | 13197 ft | 353 kts | 54° |
| 2026-05-07 17:49 | 34.73550 | -81.54928 | 12616 ft | 350 kts | 54° |
| 2026-05-07 17:49 | 34.74825 | -81.52431 | 12048 ft | 346 kts | 54° |
| 2026-05-07 17:50 | 34.76035 | -81.49959 | 11509 ft | 343 kts | 57° |
| 2026-05-07 17:50 | 34.77185 | -81.47391 | 10983 ft | 341 kts | 59° |
| 2026-05-07 17:50 | 34.78143 | -81.44803 | 10661 ft | 341 kts | 68° |
| 2026-05-07 17:50 | 34.79010 | -81.42135 | 10345 ft | 338 kts | 64° |
| 2026-05-07 17:51 | 34.79911 | -81.39497 | 10040 ft | 336 kts | 64° |
| 2026-05-07 17:51 | 34.80801 | -81.36879 | 9677 ft | 334 kts | 64° |
| 2026-05-07 17:51 | 34.81691 | -81.34277 | 9311 ft | 332 kts | 64° |
| 2026-05-07 17:51 | 34.82580 | -81.31695 | 8931 ft | 329 kts | 64° |
| 2026-05-07 17:52 | 34.83462 | -81.29138 | 8571 ft | 326 kts | 64° |
| 2026-05-07 17:52 | 34.84341 | -81.26608 | 8246 ft | 321 kts | 64° |
| 2026-05-07 17:52 | 34.85207 | -81.24118 | 7903 ft | 317 kts | 64° |
| 2026-05-07 17:52 | 34.86054 | -81.21686 | 7737 ft | 306 kts | 64° |
| 2026-05-07 17:53 | 34.86865 | -81.19351 | 7604 ft | 290 kts | 64° |
| 2026-05-07 17:53 | 34.87626 | -81.17148 | 7486 ft | 273 kts | 64° |
| 2026-05-07 17:53 | 34.88346 | -81.15054 | 7358 ft | 263 kts | 64° |
| 2026-05-07 17:53 | 34.89042 | -81.13041 | 7167 ft | 255 kts | 64° |
| 2026-05-07 17:54 | 34.89728 | -81.11052 | 6841 ft | 253 kts | 64° |
| 2026-05-07 17:54 | 34.90410 | -81.09083 | 6564 ft | 251 kts | 64° |
| 2026-05-07 17:54 | 34.91087 | -81.07136 | 6212 ft | 248 kts | 64° |
| 2026-05-07 17:54 | 34.91762 | -81.05209 | 5795 ft | 247 kts | 64° |
| 2026-05-07 17:55 | 34.92428 | -81.03338 | 5446 ft | 241 kts | 64° |
| 2026-05-07 17:55 | 34.93105 | -81.01461 | 5161 ft | 237 kts | 64° |
| 2026-05-07 17:55 | 34.93758 | -80.99654 | 4898 ft | 235 kts | 64° |
| 2026-05-07 17:55 | 34.94417 | -80.97840 | 4615 ft | 233 kts | 63° |
| 2026-05-07 17:56 | 34.95381 | -80.96330 | 4297 ft | 223 kts | 32° |
| 2026-05-07 17:56 | 34.96696 | -80.95379 | 4060 ft | 215 kts | 23° |
| 2026-05-07 17:56 | 34.97996 | -80.94573 | 3956 ft | 204 kts | 22° |
| 2026-05-07 17:56 | 34.99214 | -80.93823 | 3994 ft | 188 kts | 21° |
| 2026-05-07 17:57 | 35.00418 | -80.93427 | 3972 ft | 173 kts | 356° |
| 2026-05-07 17:57 | 35.01219 | -80.93476 | 3976 ft | 170 kts | 349° |
| 2026-05-07 17:57 | 35.02802 | -80.93607 | 3963 ft | 176 kts | 351° |
| 2026-05-07 17:57 | 35.04079 | -80.93717 | 3721 ft | 190 kts | 352° |
| 2026-05-07 17:58 | 35.05406 | -80.93826 | 3474 ft | 192 kts | 352° |
| 2026-05-07 17:58 | 35.06731 | -80.93941 | 3241 ft | 188 kts | 352° |
| 2026-05-07 17:58 | 35.07968 | -80.94045 | 3012 ft | 169 kts | 352° |
| 2026-05-07 17:58 | 35.09079 | -80.94139 | 2798 ft | 152 kts | 351° |
| 2026-05-07 17:59 | 35.10092 | -80.94226 | 2614 ft | 140 kts | 351° |
| 2026-05-07 17:59 | 35.11045 | -80.94309 | 2436 ft | 135 kts | 351° |
| 2026-05-07 17:59 | 35.11982 | -80.94390 | 2257 ft | 135 kts | 352° |
| 2026-05-07 17:59 | 35.12917 | -80.94471 | 2084 ft | 134 kts | 352° |
| 2026-05-07 18:00 | 35.13534 | -80.94528 | 1953 ft | 135 kts | 350° |
| 2026-05-07 18:00 | 35.14780 | -80.94655 | 1729 ft | 135 kts | 352° |
| 2026-05-07 18:00 | 35.15398 | -80.94699 | 1611 ft | 134 kts | 353° |
| 2026-05-07 18:00 | 35.16332 | -80.94767 | 1454 ft | 136 kts | 353° |
| 2026-05-07 18:01 | 35.17265 | -80.94856 | 1278 ft | 134 kts | 353° |
| 2026-05-07 18:01 | 35.18189 | -80.94926 | 1115 ft | 132 kts | 353° |
| 2026-05-07 18:01 | 35.19112 | -80.95010 | 910 ft | 132 kts | 352° |
| 2026-05-07 18:01 | 35.20038 | -80.95088 | 757 ft | 133 kts | 353° |
| 2026-05-07 18:02 | 35.21361 | -80.95192 | 720 ft | 41 kts | 4° |
| 2026-05-07 18:02 | 35.21538 | -80.95114 | 718 ft | 13 kts | 23° |
| 2026-05-07 18:02 | 35.21563 | -80.95101 | 720 ft | 1 kts | 25° |
| 2026-05-07 18:03 | 35.21584 | -80.95089 | 719 ft | 7 kts | 24° |
| 2026-05-07 18:03 | 35.21652 | -80.95053 | 718 ft | 14 kts | 23° |
| 2026-05-07 18:03 | 35.21740 | -80.95001 | 719 ft | 14 kts | 50° |
| 2026-05-07 18:03 | 35.21818 | -80.94950 | 719 ft | 14 kts | 356° |
| 2026-05-07 18:04 | 35.21877 | -80.94882 | 721 ft | 14 kts | 80° |
| 2026-05-07 18:04 | 35.21875 | -80.94769 | 722 ft | 13 kts | 120° |
| 2026-05-07 18:04 | 35.21901 | -80.94693 | 720 ft | 12 kts | 50° |
| 2026-05-07 18:04 | 35.21961 | -80.94600 | 719 ft | 12 kts | 63° |
| 2026-05-07 18:05 | 35.21959 | -80.94556 | 722 ft | 0 kts | 101° |